Flight Track Log - Related Links

Times and Time Zones

All times are in EDT time to prevent confusion due to time zone crossing. See the N724HS flight status page for this flight to view local times or setup timezone preferences in your user account.

Time Position Orientation Groundspeed Altitude Reporting Facility
EDT Latitude Longitude Course Direction KTS MPH feet Rate Location/Type
Wed 03:24:53 PM 27.9833 -82.0000 180° South 133 153 800  Level Tampa TRACON
Wed 03:25:23 PM 27.9667 -82.0000 144° Southeast 145 167 1,400 875 Climbing Tampa TRACON
Wed 03:26:29 PM 27.9000 -82.0167 192° South 221 254 2,200 757 Climbing Tampa TRACON
Wed 03:27:06 PM 27.8733 -82.0169 181° South 209 241 2,700 485 Climbing Miami Center
Wed 03:28:08 PM 27.8150 -82.0339 194° South 219 252 3,000 1,024 Climbing Miami Center
Wed 03:29:09 PM 27.7583 -82.0500 194° South 211 243 4,800 1,902 Climbing Miami Center
Wed 03:30:11 PM 27.7000 -82.0692 196° South 188 216 6,900 1,805 Climbing Miami Center
Wed 03:31:12 PM 27.6514 -82.0850 196° South 188 216 8,500 1,463 Climbing Miami Center
Wed 03:32:14 PM 27.6014 -82.1019 197° South 187 215 9,900 1,403 Climbing Miami Center
Wed 03:33:16 PM 27.5533 -82.1261 204° Southwest 202 232 11,400 1,366 Climbing Miami Center
Wed 03:34:17 PM 27.5019 -82.1403 194° South 194 223 12,700 1,317 Climbing Miami Center
Wed 03:35:19 PM 27.4394 -82.1625 198° South 194 223 14,100 1,161 Climbing Miami Center
Wed 03:36:21 PM 27.3844 -82.1794 195° South 200 230 15,100 829 Climbing Miami Center
Wed 03:37:22 PM 27.3292 -82.1964 195° South 206 237 15,800 390 Climbing Miami Center
Wed 03:38:24 PM 27.2717 -82.2153 196° South 215 247 15,900 97 Climbing Miami Center
Wed 03:39:26 PM 27.2083 -82.2344 195° South 233 268 16,000 48 Climbing Miami Center
Wed 03:40:28 PM 27.1442 -82.2553 196° South 238 274 16,000  Level Miami Center
Wed 03:41:29 PM 27.0783 -82.2758 196° South 241 277 16,000  Level Miami Center
Wed 03:42:31 PM 27.0003 -82.3006 196° South 242 278 16,000 242 Level Miami Center
Wed 03:43:33 PM 26.9372 -82.3150 192° South 237 273 16,500 488 Climbing Miami Center
Wed 03:44:34 PM 26.8706 -82.3075 174° South 224 258 17,000 244 Climbing Miami Center
Wed 03:45:36 PM 26.8072 -82.3011 175° South 226 260 17,000  Level Miami Center
Wed 03:46:38 PM 26.7347 -82.2939 175° South 243 280 17,000  Level Miami Center
Wed 03:47:40 PM 26.6678 -82.2875 175° South 243 280 17,000  Level Miami Center
Wed 03:48:41 PM 26.5942 -82.2789 174° South 247 284 17,000  Level Miami Center
Wed 03:49:43 PM 26.5275 -82.2708 174° South 246 283 17,000  Level Miami Center
Wed 03:50:45 PM 26.4531 -82.2625 174° South 247 284 17,000  Level Miami Center
Wed 03:51:47 PM 26.3856 -82.2547 174° South 247 284 17,000  Level Miami Center
Wed 03:52:48 PM 26.3111 -82.2458 174° South 249 287 17,000  Level Miami Center
Wed 03:53:50 PM 26.2428 -82.2367 173° South 249 287 17,000  Level Miami Center
Wed 03:54:52 PM 26.1686 -82.2281 174° South 249 287 17,000  Level Miami Center
Wed 03:55:54 PM 26.1017 -82.2119 168° South 249 287 17,000  Level Miami Center
Wed 03:56:55 PM 26.0403 -82.1619 144° Southeast 254 292 17,000  Level Miami Center
Wed 03:57:57 PM 25.9944 -82.1033 131° Southeast 254 292 17,000  Level Miami Center
Wed 03:58:59 PM 25.9478 -82.0378 128° Southeast 255 293 17,000  Level Miami Center
Wed 04:00:01 PM 25.9044 -81.9783 129° Southeast 250 288 17,000  Level Miami Center
Wed 04:01:02 PM 25.8697 -81.9067 118° Southeast 249 287 17,000 -98 Level Miami Center
Wed 04:02:04 PM 25.8422 -81.8375 114° Southeast 249 287 16,800 -387 Descending Miami Center
Wed 04:03:06 PM 25.8106 -81.7614 115° Southeast 250 288 16,200 -484 Descending Miami Center
Wed 04:04:08 PM 25.7822 -81.6892 114° Southeast 255 293 15,800 -439 Descending Miami Center
Wed 04:05:09 PM 25.7594 -81.6067 107° East 260 299 15,300 -488 Descending Miami Center
Wed 04:06:11 PM 25.7594 -81.5256 90° East 262 302 14,800 -484 Descending Miami Center
Wed 04:07:13 PM 25.7592 -81.4389 90° East 263 303 14,300 -484 Descending Miami Center
Wed 04:08:15 PM 25.7622 -81.3583 88° East 263 303 13,800 -488 Descending Miami Center
Wed 04:09:16 PM 25.7692 -81.2836 84° East 264 304 13,300 -927 Descending Miami Center
Wed 04:10:18 PM 25.7794 -81.1994 82° East 271 312 11,900 -1,714 Descending Miami Center
Wed 04:11:01 PM 25.7869 -81.1228 84° East 283 326 10,300 -1,742 Descending Miami Center
Wed 04:11:20 PM 25.7875 -81.1128 86° East 281 323 10,100 -1,164 Descending Miami Center
Wed 04:12:08 PM 25.7950 -81.0331 84° East 267 307 9,000 -1,082 Descending Miami Center
Wed 04:12:21 PM 25.7981 -81.0175 78° East 258 297 9,000 -984 Level Miami Center
Wed 04:13:09 PM 25.8131 -80.9558 75° East 262 302 8,000 -1,258 Descending Miami Center
Wed 04:13:23 PM 25.8197 -80.9400 65° Northeast 266 306 7,700 -1,377 Descending Miami Center
Wed 04:14:10 PM 25.8528 -80.8922 52° Northeast 260 299 6,600 -1,452 Descending Miami Center
Wed 04:14:25 PM 25.8636 -80.8769 52° Northeast 263 303 6,200 -1,377 Descending Miami Center
Wed 04:15:11 PM 25.8969 -80.8308 51° Northeast 252 290 5,200 -1,082 Descending Miami Center
Wed 04:15:26 PM 25.9050 -80.8161 59° Northeast 249 287 5,100 -197 Descending Miami Center
Wed 04:16:12 PM 25.9325 -80.7667 58° Northeast 226 260 5,000 -97 Descending Miami Center
Wed 04:16:28 PM 25.9389 -80.7564 55° Northeast 231 266 5,000  Level Miami Center
Wed 04:17:12 PM 25.9700 -80.7069 55° Northeast 229 264 5,000  Level Miami Center
Wed 04:17:30 PM 25.9750 -80.6975 60° Northeast 230 265 5,000  Level Miami Center
Wed 04:18:07 PM 26.0008 -80.6517 58° Northeast 230 265 5,000  Level Miami Center
Wed 04:18:31 PM 26.0097 -80.6378 55° Northeast 230 265 5,000  Level Miami Center
Wed 04:19:08 PM 26.0239 -80.5861 73° East 231 266 5,000 -290 Level Miami Center
Wed 04:19:33 PM 26.0283 -80.5692 74° East 229 264 4,700 -1,343 Descending Miami Center
Wed 04:20:15 PM 26.0414 -80.5111 76° East 238 274 3,500 -1,377 Descending Miami Center
Wed 04:20:34 PM 26.0456 -80.4989 69° East 236 272 3,300 -885 Descending Miami Center
Wed 04:21:16 PM 26.0600 -80.4500 72° East 210 242 2,600 -774 Descending Miami Center
Wed 04:21:36 PM 26.0656 -80.4275 75° East 203 234 2,500 -98 Descending Miami Center
Wed 04:22:17 PM 26.0764 -80.3908 72° East 196 226 2,500  Level Miami Center
Wed 04:22:38 PM 26.0789 -80.3672 83° East 205 236 2,500  Level Miami Center
Wed 04:23:18 PM 26.0783 -80.3261 91° East 174 200 2,500  Level Miami Center
Wed 04:23:39 PM 26.0781 -80.3114 91° East 182 209 2,500 -590 Level Miami Center
Wed 04:24:19 PM 26.0772 -80.2772 92° East 166 191 1,900 -774 Descending Miami Center
Wed 04:24:41 PM 26.0778 -80.2614 88° East 167 192 1,700 -636 Descending Miami Center
Wed 04:25:25 PM 26.0761 -80.2286 93° East 116 133 1,200 -677 Descending Miami Center
Wed 04:25:43 PM 26.0767 -80.2200 86° East 136 157 1,000 -689 Descending Miami Center
Wed 04:26:26 PM 26.0764 -80.1936 91° East 105 121 500 -689 Descending Miami Center
Wed 04:26:44 PM 26.0769 -80.1833 87° East 112 129 300 -300 Descending Miami Center
Wed 04:27:46 PM 26.0767 -80.1522 91° East 109 125 100 -194 Descending Miami Center
Wed 04:29:00 PM 26.0667 -80.1500 50° Northeast  Level FlightAware Approximate

Login

Don't have an account? Register now (free) for customized features, flight alerts, and more!